John P. Tully — CG2958 — position and weather

sailwx.info

Track history (hours):
 
Tides and Currents Weather Stations Pressure Air Temp Water Temp Dewpoint Dewpoint Depression Visibility Wind Speed Wind Dir Waves Ship Positions

Oceanographic research ship John P. Tully (Canada)

Detailed information on ship capabilities available from University of Delaware's Ocean Information Center.

Last reported at 2020-Aug-13 09:59 UTC. Time now 2020-Aug-13 11:39 UTC.
Position N 48°17' W 123°52'.

Length 68.9 m; beam 14.5 m; draft 4.5 m.

Type: SAR. MMSI: 316114000.

Date/timePositionNaut miles runAvg speedWind from/ knotsBaromVisibWave heightAir tempDewpointWater temp
2020-Aug-13 09:59N 48°17' W 123°52'1610.5
2020-Aug-13 08:30N 48°18' W 123°29'9 9.0
2020-Aug-13 07:30N 48°23' W 123°18'8 8.2
2020-Aug-13 06:30N 48°30' W 123°13'5 9.9
2020-Aug-13 06:00N 48°35' W 123°14'2 1.8
2020-Aug-13 05:00N 48°37' W 123°15'10 5.2
2020-Aug-13 03:01N 48°42' W 123°28'4 7.3
2020-Aug-13 02:30N 48°39' W 123°30'2 1.0
2020-Aug-13 00:30N 48°39' W 123°27'0 0.0
2020-Aug-12 23:00N 48°39' W 123°27'0 0.0
2020-Aug-12 21:30N 48°39' W 123°27'0 0.0
2020-Aug-12 20:57N 48°39' W 123°27'0 0.0
2020-Aug-12 20:27N 48°39' W 123°27'0 0.0
2020-Aug-12 17:00N 48°39' W 123°27'0 0.0
2020-Aug-12 15:00N 48°39' W 123°27'0 0.0
2020-Aug-12 13:57N 48°39' W 123°27'0 0.0
2020-Aug-12 12:30N 48°39' W 123°27'0 0.0
2020-Aug-12 10:30N 48°39' W 123°27'0 0.0
2020-Aug-12 10:00N 48°39' W 123°27'0 0.0
2020-Aug-12 08:00N 48°39' W 123°27'0 0.0
2020-Aug-12 06:30N 48°39' W 123°27'0 0.0
2020-Aug-12 03:00N 48°39' W 123°27'0 0.0
2020-Aug-12 02:30N 48°39' W 123°27'0 0.0
2020-Aug-11 23:30N 48°39' W 123°27'0 0.0
2020-Aug-11 23:00N 48°39' W 123°27'0 0.0
2020-Aug-11 21:27N 48°39' W 123°27'0 0.0
2020-Aug-11 21:00N 48°39' W 123°27'0 0.0
2020-Aug-11 20:00N 48°39' W 123°27'0 0.0
2020-Aug-11 17:30N 48°39' W 123°27'0 0.0
2020-Aug-11 13:00N 48°39' W 123°27'0 0.0
2020-Aug-11 11:30N 48°39' W 123°27'0 0.0
2020-Aug-11 10:00N 48°39' W 123°27'0 0.0
2020-Aug-11 09:30N 48°39' W 123°27'0 0.0
2020-Aug-11 07:00N 48°39' W 123°27'0 0.0
2020-Aug-11 06:00N 48°39' W 123°27'0 0.0
2020-Aug-11 05:00N 48°39' W 123°27'0 0.0
2020-Aug-11 01:00N 48°39' W 123°27'0 0.0
2020-Aug-11 00:00N 48°39' W 123°27'0 0.0
2020-Aug-10 21:30N 48°39' W 123°27'0 0.0
2020-Aug-10 17:57N 48°39' W 123°27'0 0.0
2020-Aug-10 12:30N 48°39' W 123°27'0 0.0
2020-Aug-10 09:00N 48°39' W 123°27'0 0.0
2020-Aug-10 08:30N 48°39' W 123°27'0 0.0
2020-Aug-10 00:30N 48°39' W 123°27'0 0.0
2020-Aug-09 23:27N 48°39' W 123°27'9 2.6
2020-Aug-09 20:00N 48°47' W 123°21'12 7.9
2020-Aug-09 18:31N 48°59' W 123°24'12 6.1
2020-Aug-09 16:30N 49°11' W 123°24'8 5.1
2020-Aug-09 15:00N 49°11' W 123°35'7 3.0
2020-Aug-09 12:30N 49°15' W 123°45'5 3.1
2020-Aug-09 11:00N 49°19' W 123°48'11 7.5
2020-Aug-09 09:30N 49°22' W 124°05'8 4.1
2020-Aug-09 07:29N 49°30' W 124°06'3 6.3
2020-Aug-09 07:00N 49°27' W 124°06'7 4.8
2020-Aug-09 05:29N 49°26' W 124°17'2 2.1
2020-Aug-09 04:25N 49°27' W 124°20'20 4.1
2020-Aug-08 23:30N 49°42' W 124°40'2 1.8
2020-Aug-08 22:31N 49°44' W 124°41'4 3.8
2020-Aug-08 21:30N 49°44' W 124°47'7 1.7
2020-Aug-08 17:31N 49°50' W 124°52'12 4.1
2020-Aug-08 14:30N 49°60' W 125°04'2 1.3
2020-Aug-08 13:00N 50°02' W 125°06'5 3.3
2020-Aug-08 11:30N 50°00' W 125°13'713.7
2020-Aug-08 11:00N 50°06' W 125°18'12 8.1
2020-Aug-08 09:30N 50°18' W 125°25'3 6.3
2020-Aug-08 08:59N 50°21' W 125°26'55 6.9
2020-Aug-08 01:00N 50°35' W 126°49'7 6.5
2020-Aug-08 00:00N 50°41' W 126°54'22 2.2
2020-Aug-07 14:00N 50°45' W 127°28'8 2.2
2020-Aug-07 10:30N 50°52' W 127°34'2 3.1
2020-Aug-07 10:00N 50°53' W 127°36'20 5.6
2020-Aug-07 06:30N 51°11' W 127°49'1 0.4
2020-Aug-07 05:00N 51°11' W 127°50'1 1.5
2020-Aug-07 04:30N 51°11' W 127°51'2 3.8
2020-Aug-07 04:00N 51°11' W 127°54'1 2.5
2020-Aug-07 03:30N 51°11' W 127°56'11 4.5
2020-Aug-07 01:00N 50°60' W 127°50'8 5.2
2020-Aug-06 23:30N 50°55' W 127°40'0 0.1
2020-Aug-06 21:19N 50°55' W 127°41'0 0.2
2020-Aug-06 20:00N 50°55' W 127°40'0 0.1
2020-Aug-06 16:01N 50°55' W 127°40'3 1.0
2020-Aug-06 13:30N 50°57' W 127°42'39 5.1
2020-Aug-06 06:00N 50°40' W 126°47'5 9.7
2020-Aug-06 05:30N 50°42' W 126°54'6 6.1
2020-Aug-06 04:30N 50°43' W 127°04'5 9.8
2020-Aug-06 04:00N 50°43' W 127°12'9 4.4
2020-Aug-06 02:00N 50°47' W 127°24'3 6.6
2020-Aug-06 01:30N 50°49' W 127°28'23 7.6
2020-Aug-05 22:30N 51°04' W 127°55'21 8.4
2020-Aug-05 20:00N 51°22' W 128°14'5 9.7
2020-Aug-05 19:30N 51°19' W 128°20'2211.1
2020-Aug-05 17:29N 51°05' W 128°48'23 6.6
2020-Aug-05 14:00N 51°28' W 128°48'9 9.3
2020-Aug-05 13:00N 51°37' W 128°47'2 4.6
2020-Aug-05 12:30N 51°38' W 128°43'14 4.8
2020-Aug-05 09:30N 51°44' W 128°22'13 4.4
2020-Aug-05 06:30N 51°55' W 128°35'6 3.0
2020-Aug-05 04:31N 51°55' W 128°45'31 7.8
2020-Aug-05 00:31N 52°26' W 128°33'10 5.1
2020-Aug-04 22:30N 52°16' W 128°35'1610.9
2020-Aug-04 21:00N 52°12' W 129°02'1110.3
2020-Aug-04 19:59N 52°11' W 129°19'43 4.1
2020-Aug-04 09:30N 52°54' W 129°19'7 5.7
2020-Aug-04 08:20N 53°00' W 129°16'  
Track history (hours):
 
Tides and Currents Weather Stations Pressure Air Temp Water Temp Dewpoint Dewpoint Depression Visibility Wind Speed Wind Dir Waves Ship Positions

Oceanographic research ship John P. Tully (Canada)

Detailed information on ship capabilities available from University of Delaware's Ocean Information Center.

Last reported at 2020-Aug-13 09:59 UTC. Time now 2020-Aug-13 11:39 UTC.
Position N 48°17' W 123°52'.

Length 68.9 m; beam 14.5 m; draft 4.5 m.

Type: SAR. MMSI: 316114000.

Date/timePositionNaut miles runAvg speedWind from/ knotsBaromVisibWave heightAir tempDewpointWater temp
2020-Aug-13 09:59N 48°17' W 123°52'1610.5
2020-Aug-13 08:30N 48°18' W 123°29'9 9.0
2020-Aug-13 07:30N 48°23' W 123°18'8 8.2
2020-Aug-13 06:30N 48°30' W 123°13'5 9.9
2020-Aug-13 06:00N 48°35' W 123°14'2 1.8
2020-Aug-13 05:00N 48°37' W 123°15'10 5.2
2020-Aug-13 03:01N 48°42' W 123°28'4 7.3
2020-Aug-13 02:30N 48°39' W 123°30'2 1.0
2020-Aug-13 00:30N 48°39' W 123°27'0 0.0
2020-Aug-12 23:00N 48°39' W 123°27'0 0.0
2020-Aug-12 21:30N 48°39' W 123°27'0 0.0
2020-Aug-12 20:57N 48°39' W 123°27'0 0.0
2020-Aug-12 20:27N 48°39' W 123°27'0 0.0
2020-Aug-12 17:00N 48°39' W 123°27'0 0.0
2020-Aug-12 15:00N 48°39' W 123°27'0 0.0
2020-Aug-12 13:57N 48°39' W 123°27'0 0.0
2020-Aug-12 12:30N 48°39' W 123°27'0 0.0
2020-Aug-12 10:30N 48°39' W 123°27'0 0.0
2020-Aug-12 10:00N 48°39' W 123°27'0 0.0
2020-Aug-12 08:00N 48°39' W 123°27'0 0.0
2020-Aug-12 06:30N 48°39' W 123°27'0 0.0
2020-Aug-12 03:00N 48°39' W 123°27'0 0.0
2020-Aug-12 02:30N 48°39' W 123°27'0 0.0
2020-Aug-11 23:30N 48°39' W 123°27'0 0.0
2020-Aug-11 23:00N 48°39' W 123°27'0 0.0
2020-Aug-11 21:27N 48°39' W 123°27'0 0.0
2020-Aug-11 21:00N 48°39' W 123°27'0 0.0
2020-Aug-11 20:00N 48°39' W 123°27'0 0.0
2020-Aug-11 17:30N 48°39' W 123°27'0 0.0
2020-Aug-11 13:00N 48°39' W 123°27'0 0.0
2020-Aug-11 11:30N 48°39' W 123°27'0 0.0
2020-Aug-11 10:00N 48°39' W 123°27'0 0.0
2020-Aug-11 09:30N 48°39' W 123°27'0 0.0
2020-Aug-11 07:00N 48°39' W 123°27'0 0.0
2020-Aug-11 06:00N 48°39' W 123°27'0 0.0
2020-Aug-11 05:00N 48°39' W 123°27'0 0.0
2020-Aug-11 01:00N 48°39' W 123°27'0 0.0
2020-Aug-11 00:00N 48°39' W 123°27'0 0.0
2020-Aug-10 21:30N 48°39' W 123°27'0 0.0
2020-Aug-10 17:57N 48°39' W 123°27'0 0.0
2020-Aug-10 12:30N 48°39' W 123°27'0 0.0
2020-Aug-10 09:00N 48°39' W 123°27'0 0.0
2020-Aug-10 08:30N 48°39' W 123°27'0 0.0
2020-Aug-10 00:30N 48°39' W 123°27'0 0.0
2020-Aug-09 23:27N 48°39' W 123°27'9 2.6
2020-Aug-09 20:00N 48°47' W 123°21'12 7.9
2020-Aug-09 18:31N 48°59' W 123°24'12 6.1
2020-Aug-09 16:30N 49°11' W 123°24'8 5.1
2020-Aug-09 15:00N 49°11' W 123°35'7 3.0
2020-Aug-09 12:30N 49°15' W 123°45'5 3.1
2020-Aug-09 11:00N 49°19' W 123°48'11 7.5
2020-Aug-09 09:30N 49°22' W 124°05'8 4.1
2020-Aug-09 07:29N 49°30' W 124°06'3 6.3
2020-Aug-09 07:00N 49°27' W 124°06'7 4.8
2020-Aug-09 05:29N 49°26' W 124°17'2 2.1
2020-Aug-09 04:25N 49°27' W 124°20'20 4.1
2020-Aug-08 23:30N 49°42' W 124°40'2 1.8
2020-Aug-08 22:31N 49°44' W 124°41'4 3.8
2020-Aug-08 21:30N 49°44' W 124°47'7 1.7
2020-Aug-08 17:31N 49°50' W 124°52'12 4.1
2020-Aug-08 14:30N 49°60' W 125°04'2 1.3
2020-Aug-08 13:00N 50°02' W 125°06'5 3.3
2020-Aug-08 11:30N 50°00' W 125°13'713.7
2020-Aug-08 11:00N 50°06' W 125°18'12 8.1
2020-Aug-08 09:30N 50°18' W 125°25'3 6.3
2020-Aug-08 08:59N 50°21' W 125°26'55 6.9
2020-Aug-08 01:00N 50°35' W 126°49'7 6.5
2020-Aug-08 00:00N 50°41' W 126°54'22 2.2
2020-Aug-07 14:00N 50°45' W 127°28'8 2.2
2020-Aug-07 10:30N 50°52' W 127°34'2 3.1
2020-Aug-07 10:00N 50°53' W 127°36'20 5.6
2020-Aug-07 06:30N 51°11' W 127°49'1 0.4
2020-Aug-07 05:00N 51°11' W 127°50'1 1.5
2020-Aug-07 04:30N 51°11' W 127°51'2 3.8
2020-Aug-07 04:00N 51°11' W 127°54'1 2.5
2020-Aug-07 03:30N 51°11' W 127°56'11 4.5
2020-Aug-07 01:00N 50°60' W 127°50'8 5.2
2020-Aug-06 23:30N 50°55' W 127°40'0 0.1
2020-Aug-06 21:19N 50°55' W 127°41'0 0.2
2020-Aug-06 20:00N 50°55' W 127°40'0 0.1
2020-Aug-06 16:01N 50°55' W 127°40'3 1.0
2020-Aug-06 13:30N 50°57' W 127°42'39 5.1
2020-Aug-06 06:00N 50°40' W 126°47'5 9.7
2020-Aug-06 05:30N 50°42' W 126°54'6 6.1
2020-Aug-06 04:30N 50°43' W 127°04'5 9.8
2020-Aug-06 04:00N 50°43' W 127°12'9 4.4
2020-Aug-06 02:00N 50°47' W 127°24'3 6.6
2020-Aug-06 01:30N 50°49' W 127°28'23 7.6
2020-Aug-05 22:30N 51°04' W 127°55'21 8.4
2020-Aug-05 20:00N 51°22' W 128°14'5 9.7
2020-Aug-05 19:30N 51°19' W 128°20'2211.1
2020-Aug-05 17:29N 51°05' W 128°48'23 6.6
2020-Aug-05 14:00N 51°28' W 128°48'9 9.3
2020-Aug-05 13:00N 51°37' W 128°47'2 4.6
2020-Aug-05 12:30N 51°38' W 128°43'14 4.8
2020-Aug-05 09:30N 51°44' W 128°22'13 4.4
2020-Aug-05 06:30N 51°55' W 128°35'6 3.0
2020-Aug-05 04:31N 51°55' W 128°45'31 7.8
2020-Aug-05 00:31N 52°26' W 128°33'10 5.1
2020-Aug-04 22:30N 52°16' W 128°35'1610.9
2020-Aug-04 21:00N 52°12' W 129°02'1110.3
2020-Aug-04 19:59N 52°11' W 129°19'43 4.1
2020-Aug-04 09:30N 52°54' W 129°19'7 5.7
2020-Aug-04 08:20N 53°00' W 129°16'  

Dump ship's entire track history